Etusivu
METAR-TAF:

METAR-TAF

Lentoasemat :

Valdivia, Chile

Leveyspiiri: 39-37S, Pituuspiiri: 073-05W, korkeus merenpinnasta: 19 m

Tämänhetkinen sää

Tämä raportti tehtiin 21 minuuttia sitten, kello 09.00 UTC
tyyntä
Lämpötila 7°C
Kosteus 100%
Ilmanpaine 1022 hPa
Näkyvyys: 2700 m
Muutamia pilviä 100 ft:n korkeudessa
Pilvistä 5400 ft:n korkeudessa
utua,

METAR: SCVD 170900Z AUTO 00000KT 2700 BR FEW001 OVC054 07/07 Q1022

Aika: 05:21 (09:21 UTC)


TAF: puuttuu

Säähavainnot ja -ennusteet yli 4000 lentoasemalta (METAR- ja TAF-raportit).

Käytössä olevat sääasemat on merkitty karttaan keltaisilla ja punaisilla pisteillä.

Aseta hiiri pisteen päälle nähdäksesi sääaseman nimen.

Klikkaa sitten nähdäksesi säähavainnot ja -ennusteet.

Kartan vaihtaminen: klikkaa mustalla rastilla varustettuja vihreitä pisteitä, niin voit zoomata sisään; viivalla varustettua vihreää pistettä, niin voit zoomata ulos tai vihreitä nuolia, niin pääset viereisille kartoille.


METAR-TAF: